sensor_id;sensor_type;location;lat;lon;timestamp;temperature;humidity
42743;DHT22;28397;44.552;-0.848;2023-09-07T00:01:17;23.10;99.90
42743;DHT22;28397;44.552;-0.848;2023-09-07T00:03:43;23.10;99.90
42743;DHT22;28397;44.552;-0.848;2023-09-07T00:06:09;23.20;99.90
42743;DHT22;28397;44.552;-0.848;2023-09-07T00:08:35;23.10;99.90
42743;DHT22;28397;44.552;-0.848;2023-09-07T00:11:04;23.10;99.90
42743;DHT22;28397;44.552;-0.848;2023-09-07T00:13:30;23.00;99.90
42743;DHT22;28397;44.552;-0.848;2023-09-07T00:16:02;23.00;99.90
42743;DHT22;28397;44.552;-0.848;2023-09-07T00:18:28;23.00;99.90
42743;DHT22;28397;44.552;-0.848;2023-09-07T00:20:54;23.00;99.90
42743;DHT22;28397;44.552;-0.848;2023-09-07T00:23:20;22.90;99.90
42743;DHT22;28397;44.552;-0.848;2023-09-07T00:25:46;23.00;99.90
42743;DHT22;28397;44.552;-0.848;2023-09-07T00:28:12;22.90;99.90
42743;DHT22;28397;44.552;-0.848;2023-09-07T00:30:37;22.80;99.90
42743;DHT22;28397;44.552;-0.848;2023-09-07T00:33:04;22.70;99.90
42743;DHT22;28397;44.552;-0.848;2023-09-07T00:35:29;22.60;99.90
42743;DHT22;28397;44.552;-0.848;2023-09-07T00:37:55;22.50;99.90
42743;DHT22;28397;44.552;-0.848;2023-09-07T00:40:22;22.50;99.90
42743;DHT22;28397;44.552;-0.848;2023-09-07T00:42:47;22.50;99.90
42743;DHT22;28397;44.552;-0.848;2023-09-07T00:45:13;22.50;99.90
42743;DHT22;28397;44.552;-0.848;2023-09-07T00:47:39;22.40;99.90
42743;DHT22;28397;44.552;-0.848;2023-09-07T00:50:05;22.30;99.90
42743;DHT22;28397;44.552;-0.848;2023-09-07T00:52:32;22.30;99.90
42743;DHT22;28397;44.552;-0.848;2023-09-07T00:54:59;22.30;99.90
42743;DHT22;28397;44.552;-0.848;2023-09-07T00:57:25;22.20;99.90
42743;DHT22;28397;44.552;-0.848;2023-09-07T00:59:51;22.30;99.90
42743;DHT22;28397;44.552;-0.848;2023-09-07T01:02:16;22.30;99.90
42743;DHT22;28397;44.552;-0.848;2023-09-07T01:04:42;22.30;99.90
42743;DHT22;28397;44.552;-0.848;2023-09-07T01:07:16;22.30;99.90
42743;DHT22;28397;44.552;-0.848;2023-09-07T01:09:43;22.30;99.90
42743;DHT22;28397;44.552;-0.848;2023-09-07T01:12:16;22.40;99.90
42743;DHT22;28397;44.552;-0.848;2023-09-07T01:14:42;22.40;99.90
42743;DHT22;28397;44.552;-0.848;2023-09-07T01:17:09;22.60;99.90
42743;DHT22;28397;44.552;-0.848;2023-09-07T01:19:36;22.70;99.90
42743;DHT22;28397;44.552;-0.848;2023-09-07T01:22:02;22.80;99.90
42743;DHT22;28397;44.552;-0.848;2023-09-07T01:24:30;22.90;99.90
42743;DHT22;28397;44.552;-0.848;2023-09-07T01:26:59;23.00;99.90
42743;DHT22;28397;44.552;-0.848;2023-09-07T01:29:26;23.10;99.90
42743;DHT22;28397;44.552;-0.848;2023-09-07T01:31:55;23.00;99.90
42743;DHT22;28397;44.552;-0.848;2023-09-07T01:34:20;23.00;99.90
42743;DHT22;28397;44.552;-0.848;2023-09-07T01:36:46;23.00;99.90
42743;DHT22;28397;44.552;-0.848;2023-09-07T01:39:12;23.00;99.90
42743;DHT22;28397;44.552;-0.848;2023-09-07T01:41:38;23.10;99.90
42743;DHT22;28397;44.552;-0.848;2023-09-07T01:44:04;23.10;99.90
42743;DHT22;28397;44.552;-0.848;2023-09-07T01:46:29;23.00;99.90
42743;DHT22;28397;44.552;-0.848;2023-09-07T01:48:55;22.90;99.90
42743;DHT22;28397;44.552;-0.848;2023-09-07T01:51:21;22.80;99.90
42743;DHT22;28397;44.552;-0.848;2023-09-07T01:53:48;22.70;99.90
42743;DHT22;28397;44.552;-0.848;2023-09-07T01:56:16;22.60;99.90
42743;DHT22;28397;44.552;-0.848;2023-09-07T01:58:41;22.60;99.90
42743;DHT22;28397;44.552;-0.848;2023-09-07T02:01:09;22.50;99.90
42743;DHT22;28397;44.552;-0.848;2023-09-07T02:03:44;22.40;99.90
42743;DHT22;28397;44.552;-0.848;2023-09-07T02:06:10;22.30;99.90
42743;DHT22;28397;44.552;-0.848;2023-09-07T02:08:36;22.20;99.90
42743;DHT22;28397;44.552;-0.848;2023-09-07T02:11:01;22.20;99.90
42743;DHT22;28397;44.552;-0.848;2023-09-07T02:13:28;22.20;99.90
42743;DHT22;28397;44.552;-0.848;2023-09-07T02:15:53;22.10;99.90
42743;DHT22;28397;44.552;-0.848;2023-09-07T02:18:19;22.10;99.90
42743;DHT22;28397;44.552;-0.848;2023-09-07T02:20:45;22.10;99.90
42743;DHT22;28397;44.552;-0.848;2023-09-07T02:23:10;22.00;99.90
42743;DHT22;28397;44.552;-0.848;2023-09-07T02:25:36;22.10;99.90
42743;DHT22;28397;44.552;-0.848;2023-09-07T02:28:02;22.00;99.90
42743;DHT22;28397;44.552;-0.848;2023-09-07T02:30:28;21.90;99.90
42743;DHT22;28397;44.552;-0.848;2023-09-07T02:32:54;21.90;99.90
42743;DHT22;28397;44.552;-0.848;2023-09-07T02:35:19;22.20;99.90
42743;DHT22;28397;44.552;-0.848;2023-09-07T02:37:45;22.30;99.90
42743;DHT22;28397;44.552;-0.848;2023-09-07T02:40:11;22.40;99.90
42743;DHT22;28397;44.552;-0.848;2023-09-07T02:42:37;22.30;99.90
42743;DHT22;28397;44.552;-0.848;2023-09-07T02:45:03;22.40;99.90
42743;DHT22;28397;44.552;-0.848;2023-09-07T02:47:28;22.30;99.90
42743;DHT22;28397;44.552;-0.848;2023-09-07T02:49:54;22.20;99.90
42743;DHT22;28397;44.552;-0.848;2023-09-07T02:52:20;22.20;99.90
42743;DHT22;28397;44.552;-0.848;2023-09-07T02:54:45;22.20;99.90
42743;DHT22;28397;44.552;-0.848;2023-09-07T02:57:11;22.20;99.90
42743;DHT22;28397;44.552;-0.848;2023-09-07T02:59:38;22.30;99.90
42743;DHT22;28397;44.552;-0.848;2023-09-07T03:02:03;22.30;99.90
42743;DHT22;28397;44.552;-0.848;2023-09-07T03:04:29;22.20;99.90
42743;DHT22;28397;44.552;-0.848;2023-09-07T03:06:55;22.20;99.90
42743;DHT22;28397;44.552;-0.848;2023-09-07T03:09:20;22.10;99.90
42743;DHT22;28397;44.552;-0.848;2023-09-07T03:11:46;22.00;99.90
42743;DHT22;28397;44.552;-0.848;2023-09-07T03:14:11;21.90;99.90
42743;DHT22;28397;44.552;-0.848;2023-09-07T03:16:37;21.80;99.90
42743;DHT22;28397;44.552;-0.848;2023-09-07T03:19:04;21.70;99.90
42743;DHT22;28397;44.552;-0.848;2023-09-07T03:21:29;21.70;99.90
42743;DHT22;28397;44.552;-0.848;2023-09-07T03:23:56;21.60;99.90
42743;DHT22;28397;44.552;-0.848;2023-09-07T03:26:23;21.60;99.90
42743;DHT22;28397;44.552;-0.848;2023-09-07T03:28:48;21.50;99.90
42743;DHT22;28397;44.552;-0.848;2023-09-07T03:31:14;21.40;99.90
42743;DHT22;28397;44.552;-0.848;2023-09-07T03:33:40;21.40;99.90
42743;DHT22;28397;44.552;-0.848;2023-09-07T03:36:06;21.40;99.90
42743;DHT22;28397;44.552;-0.848;2023-09-07T03:38:31;21.40;99.90
42743;DHT22;28397;44.552;-0.848;2023-09-07T03:40:57;21.40;99.90
42743;DHT22;28397;44.552;-0.848;2023-09-07T03:43:23;21.30;99.90
42743;DHT22;28397;44.552;-0.848;2023-09-07T03:45:48;21.30;99.90
42743;DHT22;28397;44.552;-0.848;2023-09-07T03:48:14;21.20;99.90
42743;DHT22;28397;44.552;-0.848;2023-09-07T03:50:40;21.30;99.90
42743;DHT22;28397;44.552;-0.848;2023-09-07T03:53:06;21.40;99.90
42743;DHT22;28397;44.552;-0.848;2023-09-07T03:55:40;21.40;99.90
42743;DHT22;28397;44.552;-0.848;2023-09-07T03:58:08;21.60;99.90
42743;DHT22;28397;44.552;-0.848;2023-09-07T04:00:37;21.70;99.90
42743;DHT22;28397;44.552;-0.848;2023-09-07T04:03:03;21.70;99.90
42743;DHT22;28397;44.552;-0.848;2023-09-07T04:05:28;21.80;99.90
42743;DHT22;28397;44.552;-0.848;2023-09-07T04:07:54;21.80;99.90
42743;DHT22;28397;44.552;-0.848;2023-09-07T04:10:20;21.70;99.90
42743;DHT22;28397;44.552;-0.848;2023-09-07T04:12:46;21.80;99.90
42743;DHT22;28397;44.552;-0.848;2023-09-07T04:15:11;21.80;99.90
42743;DHT22;28397;44.552;-0.848;2023-09-07T04:17:37;21.70;99.90
42743;DHT22;28397;44.552;-0.848;2023-09-07T04:20:07;21.60;99.90
42743;DHT22;28397;44.552;-0.848;2023-09-07T04:22:33;21.60;99.90
42743;DHT22;28397;44.552;-0.848;2023-09-07T04:24:59;21.60;99.90
42743;DHT22;28397;44.552;-0.848;2023-09-07T04:27:24;21.70;99.90
42743;DHT22;28397;44.552;-0.848;2023-09-07T04:29:51;21.60;99.90
42743;DHT22;28397;44.552;-0.848;2023-09-07T04:32:16;21.40;99.90
42743;DHT22;28397;44.552;-0.848;2023-09-07T04:34:42;21.30;99.90
42743;DHT22;28397;44.552;-0.848;2023-09-07T04:37:08;21.20;99.90
42743;DHT22;28397;44.552;-0.848;2023-09-07T04:39:33;21.10;99.90
42743;DHT22;28397;44.552;-0.848;2023-09-07T04:41:59;20.90;99.90
42743;DHT22;28397;44.552;-0.848;2023-09-07T04:44:26;20.90;99.90
42743;DHT22;28397;44.552;-0.848;2023-09-07T04:46:55;20.80;99.90
42743;DHT22;28397;44.552;-0.848;2023-09-07T04:49:21;20.80;99.90
42743;DHT22;28397;44.552;-0.848;2023-09-07T04:51:46;20.70;99.90
42743;DHT22;28397;44.552;-0.848;2023-09-07T04:54:12;20.70;99.90
42743;DHT22;28397;44.552;-0.848;2023-09-07T04:56:38;20.60;99.90
42743;DHT22;28397;44.552;-0.848;2023-09-07T04:59:04;20.60;99.90
42743;DHT22;28397;44.552;-0.848;2023-09-07T05:01:30;20.60;99.90
42743;DHT22;28397;44.552;-0.848;2023-09-07T05:03:57;20.60;99.90
42743;DHT22;28397;44.552;-0.848;2023-09-07T05:06:22;20.60;99.90
42743;DHT22;28397;44.552;-0.848;2023-09-07T05:08:48;20.60;99.90
42743;DHT22;28397;44.552;-0.848;2023-09-07T05:11:14;20.60;99.90
42743;DHT22;28397;44.552;-0.848;2023-09-07T05:13:39;20.70;99.90
42743;DHT22;28397;44.552;-0.848;2023-09-07T05:16:05;20.80;99.90
42743;DHT22;28397;44.552;-0.848;2023-09-07T05:18:31;20.90;99.90
42743;DHT22;28397;44.552;-0.848;2023-09-07T05:20:56;20.90;99.90
42743;DHT22;28397;44.552;-0.848;2023-09-07T05:23:23;20.90;99.90
42743;DHT22;28397;44.552;-0.848;2023-09-07T05:25:51;20.90;99.90
42743;DHT22;28397;44.552;-0.848;2023-09-07T05:28:21;21.00;99.90
42743;DHT22;28397;44.552;-0.848;2023-09-07T05:30:47;21.10;99.90
42743;DHT22;28397;44.552;-0.848;2023-09-07T05:33:15;21.10;99.90
42743;DHT22;28397;44.552;-0.848;2023-09-07T05:35:41;21.20;99.90
42743;DHT22;28397;44.552;-0.848;2023-09-07T05:38:11;21.30;99.90
42743;DHT22;28397;44.552;-0.848;2023-09-07T05:40:38;21.30;99.90
42743;DHT22;28397;44.552;-0.848;2023-09-07T05:43:04;21.30;99.90
42743;DHT22;28397;44.552;-0.848;2023-09-07T05:45:31;21.30;99.90
42743;DHT22;28397;44.552;-0.848;2023-09-07T05:47:57;21.10;99.90
42743;DHT22;28397;44.552;-0.848;2023-09-07T05:50:23;20.90;99.90
42743;DHT22;28397;44.552;-0.848;2023-09-07T05:52:48;20.80;99.90
42743;DHT22;28397;44.552;-0.848;2023-09-07T05:55:14;20.70;99.90
42743;DHT22;28397;44.552;-0.848;2023-09-07T05:57:40;20.60;99.90
42743;DHT22;28397;44.552;-0.848;2023-09-07T06:00:06;20.60;99.90
42743;DHT22;28397;44.552;-0.848;2023-09-07T06:02:32;20.50;99.90
42743;DHT22;28397;44.552;-0.848;2023-09-07T06:04:58;20.50;99.90
42743;DHT22;28397;44.552;-0.848;2023-09-07T06:07:23;20.40;99.90
42743;DHT22;28397;44.552;-0.848;2023-09-07T06:09:49;20.40;99.90
42743;DHT22;28397;44.552;-0.848;2023-09-07T06:12:15;20.40;99.90
42743;DHT22;28397;44.552;-0.848;2023-09-07T06:14:40;20.40;99.90
42743;DHT22;28397;44.552;-0.848;2023-09-07T06:17:06;20.30;99.90
42743;DHT22;28397;44.552;-0.848;2023-09-07T06:19:32;20.30;99.90
42743;DHT22;28397;44.552;-0.848;2023-09-07T06:21:58;20.40;99.90
42743;DHT22;28397;44.552;-0.848;2023-09-07T06:24:24;20.40;99.90
42743;DHT22;28397;44.552;-0.848;2023-09-07T06:26:49;20.40;99.90
42743;DHT22;28397;44.552;-0.848;2023-09-07T06:29:15;20.40;99.90
42743;DHT22;28397;44.552;-0.848;2023-09-07T06:31:41;20.40;99.90
42743;DHT22;28397;44.552;-0.848;2023-09-07T06:34:06;20.60;99.90
42743;DHT22;28397;44.552;-0.848;2023-09-07T06:36:32;20.70;99.90
42743;DHT22;28397;44.552;-0.848;2023-09-07T06:38:58;20.80;99.90
42743;DHT22;28397;44.552;-0.848;2023-09-07T06:41:24;20.90;99.90
42743;DHT22;28397;44.552;-0.848;2023-09-07T06:43:50;21.00;99.90
42743;DHT22;28397;44.552;-0.848;2023-09-07T06:46:16;21.00;99.90
42743;DHT22;28397;44.552;-0.848;2023-09-07T06:48:41;21.10;99.90
42743;DHT22;28397;44.552;-0.848;2023-09-07T06:51:07;21.20;99.90
42743;DHT22;28397;44.552;-0.848;2023-09-07T06:53:35;21.30;99.90
42743;DHT22;28397;44.552;-0.848;2023-09-07T06:56:02;21.30;99.90
42743;DHT22;28397;44.552;-0.848;2023-09-07T06:58:28;21.30;99.90
42743;DHT22;28397;44.552;-0.848;2023-09-07T07:00:57;21.30;99.90
42743;DHT22;28397;44.552;-0.848;2023-09-07T07:03:26;21.40;99.90
42743;DHT22;28397;44.552;-0.848;2023-09-07T07:05:52;21.30;99.90
42743;DHT22;28397;44.552;-0.848;2023-09-07T07:08:17;21.20;99.90
42743;DHT22;28397;44.552;-0.848;2023-09-07T07:10:43;21.10;99.90
42743;DHT22;28397;44.552;-0.848;2023-09-07T07:13:09;21.10;99.90
42743;DHT22;28397;44.552;-0.848;2023-09-07T07:15:35;21.10;99.90
42743;DHT22;28397;44.552;-0.848;2023-09-07T07:18:01;21.10;99.90
42743;DHT22;28397;44.552;-0.848;2023-09-07T07:20:31;21.00;99.90
42743;DHT22;28397;44.552;-0.848;2023-09-07T07:22:56;21.00;99.90
42743;DHT22;28397;44.552;-0.848;2023-09-07T07:25:22;21.00;99.90
42743;DHT22;28397;44.552;-0.848;2023-09-07T07:27:48;21.20;99.90
42743;DHT22;28397;44.552;-0.848;2023-09-07T07:30:13;21.30;99.90
42743;DHT22;28397;44.552;-0.848;2023-09-07T07:32:39;21.30;99.90
42743;DHT22;28397;44.552;-0.848;2023-09-07T07:35:05;21.30;99.90
42743;DHT22;28397;44.552;-0.848;2023-09-07T07:37:32;21.40;99.90
42743;DHT22;28397;44.552;-0.848;2023-09-07T07:39:57;21.40;99.90
42743;DHT22;28397;44.552;-0.848;2023-09-07T07:42:23;21.50;99.90
42743;DHT22;28397;44.552;-0.848;2023-09-07T07:44:49;21.60;99.90
42743;DHT22;28397;44.552;-0.848;2023-09-07T07:47:14;21.60;99.90
42743;DHT22;28397;44.552;-0.848;2023-09-07T07:49:40;21.60;99.90
42743;DHT22;28397;44.552;-0.848;2023-09-07T07:52:06;21.80;99.90
42743;DHT22;28397;44.552;-0.848;2023-09-07T07:54:33;22.00;99.90
42743;DHT22;28397;44.552;-0.848;2023-09-07T07:56:59;22.20;99.90
42743;DHT22;28397;44.552;-0.848;2023-09-07T07:59:25;22.30;99.90
42743;DHT22;28397;44.552;-0.848;2023-09-07T08:01:50;22.50;99.90
42743;DHT22;28397;44.552;-0.848;2023-09-07T08:04:16;22.60;99.90
42743;DHT22;28397;44.552;-0.848;2023-09-07T08:06:42;22.60;99.90
42743;DHT22;28397;44.552;-0.848;2023-09-07T08:09:07;22.70;99.90
42743;DHT22;28397;44.552;-0.848;2023-09-07T08:11:33;22.70;99.90
42743;DHT22;28397;44.552;-0.848;2023-09-07T08:13:59;22.80;99.90
42743;DHT22;28397;44.552;-0.848;2023-09-07T08:16:25;22.90;99.90
42743;DHT22;28397;44.552;-0.848;2023-09-07T08:18:51;22.90;99.90
42743;DHT22;28397;44.552;-0.848;2023-09-07T08:21:16;23.10;99.90
42743;DHT22;28397;44.552;-0.848;2023-09-07T08:23:43;23.20;99.90
42743;DHT22;28397;44.552;-0.848;2023-09-07T08:26:09;23.20;99.90
42743;DHT22;28397;44.552;-0.848;2023-09-07T08:28:39;23.00;99.90
42743;DHT22;28397;44.552;-0.848;2023-09-07T08:31:05;23.00;99.90
42743;DHT22;28397;44.552;-0.848;2023-09-07T08:33:32;23.00;99.90
42743;DHT22;28397;44.552;-0.848;2023-09-07T08:36:05;23.00;99.90
42743;DHT22;28397;44.552;-0.848;2023-09-07T08:38:31;23.00;99.90
42743;DHT22;28397;44.552;-0.848;2023-09-07T08:41:01;23.00;99.90
42743;DHT22;28397;44.552;-0.848;2023-09-07T08:43:29;23.10;99.90
42743;DHT22;28397;44.552;-0.848;2023-09-07T08:46:09;23.10;99.90
42743;DHT22;28397;44.552;-0.848;2023-09-07T08:48:39;23.20;99.90
42743;DHT22;28397;44.552;-0.848;2023-09-07T08:51:07;23.20;99.90
42743;DHT22;28397;44.552;-0.848;2023-09-07T08:53:35;23.30;99.90
42743;DHT22;28397;44.552;-0.848;2023-09-07T08:56:02;23.40;99.90
42743;DHT22;28397;44.552;-0.848;2023-09-07T08:58:28;23.40;99.90
42743;DHT22;28397;44.552;-0.848;2023-09-07T09:00:54;23.50;99.90
42743;DHT22;28397;44.552;-0.848;2023-09-07T09:03:23;23.50;99.90
42743;DHT22;28397;44.552;-0.848;2023-09-07T09:05:50;23.50;99.90
42743;DHT22;28397;44.552;-0.848;2023-09-07T09:08:16;23.60;99.90
42743;DHT22;28397;44.552;-0.848;2023-09-07T09:10:59;23.70;99.90
42743;DHT22;28397;44.552;-0.848;2023-09-07T09:13:30;23.90;99.90
42743;DHT22;28397;44.552;-0.848;2023-09-07T09:15:59;24.20;99.90
42743;DHT22;28397;44.552;-0.848;2023-09-07T09:18:24;24.30;99.90
42743;DHT22;28397;44.552;-0.848;2023-09-07T09:20:52;24.60;99.90
42743;DHT22;28397;44.552;-0.848;2023-09-07T09:23:18;24.70;99.90
42743;DHT22;28397;44.552;-0.848;2023-09-07T09:25:44;24.80;99.90
42743;DHT22;28397;44.552;-0.848;2023-09-07T09:28:09;24.90;99.90
42743;DHT22;28397;44.552;-0.848;2023-09-07T09:30:38;25.00;99.90
42743;DHT22;28397;44.552;-0.848;2023-09-07T09:33:05;25.10;99.90
42743;DHT22;28397;44.552;-0.848;2023-09-07T09:35:32;25.30;99.90
42743;DHT22;28397;44.552;-0.848;2023-09-07T09:38:01;25.40;99.90
42743;DHT22;28397;44.552;-0.848;2023-09-07T09:40:33;25.40;99.90
42743;DHT22;28397;44.552;-0.848;2023-09-07T09:43:03;25.40;99.90
42743;DHT22;28397;44.552;-0.848;2023-09-07T09:45:29;25.50;99.90
42743;DHT22;28397;44.552;-0.848;2023-09-07T09:47:56;25.60;99.90
42743;DHT22;28397;44.552;-0.848;2023-09-07T09:50:23;25.50;99.90
42743;DHT22;28397;44.552;-0.848;2023-09-07T09:52:48;25.50;99.90
42743;DHT22;28397;44.552;-0.848;2023-09-07T09:55:15;25.40;99.90
42743;DHT22;28397;44.552;-0.848;2023-09-07T09:57:41;25.40;99.90
42743;DHT22;28397;44.552;-0.848;2023-09-07T10:00:08;25.40;99.90
42743;DHT22;28397;44.552;-0.848;2023-09-07T10:02:54;25.40;99.90
42743;DHT22;28397;44.552;-0.848;2023-09-07T10:05:22;25.50;99.90
42743;DHT22;28397;44.552;-0.848;2023-09-07T10:07:49;25.60;99.90
42743;DHT22;28397;44.552;-0.848;2023-09-07T10:10:17;25.70;99.90
42743;DHT22;28397;44.552;-0.848;2023-09-07T10:12:45;25.80;99.90
42743;DHT22;28397;44.552;-0.848;2023-09-07T10:15:27;25.90;99.90
42743;DHT22;28397;44.552;-0.848;2023-09-07T10:18:12;25.90;99.90
42743;DHT22;28397;44.552;-0.848;2023-09-07T10:20:56;26.10;99.90
42743;DHT22;28397;44.552;-0.848;2023-09-07T10:23:35;26.10;99.90
42743;DHT22;28397;44.552;-0.848;2023-09-07T10:26:03;26.20;99.90
42743;DHT22;28397;44.552;-0.848;2023-09-07T10:28:32;26.20;99.90
42743;DHT22;28397;44.552;-0.848;2023-09-07T10:31:03;26.20;99.90
42743;DHT22;28397;44.552;-0.848;2023-09-07T10:33:30;26.50;99.90
42743;DHT22;28397;44.552;-0.848;2023-09-07T10:35:57;26.60;99.90
42743;DHT22;28397;44.552;-0.848;2023-09-07T10:38:23;26.90;99.90
42743;DHT22;28397;44.552;-0.848;2023-09-07T10:40:58;27.10;99.90
42743;DHT22;28397;44.552;-0.848;2023-09-07T10:43:33;27.10;99.90
42743;DHT22;28397;44.552;-0.848;2023-09-07T10:46:00;27.30;99.90
42743;DHT22;28397;44.552;-0.848;2023-09-07T10:48:30;27.30;99.90
42743;DHT22;28397;44.552;-0.848;2023-09-07T10:50:56;27.50;99.90
42743;DHT22;28397;44.552;-0.848;2023-09-07T10:53:30;27.50;99.90
42743;DHT22;28397;44.552;-0.848;2023-09-07T10:56:02;27.60;99.90
42743;DHT22;28397;44.552;-0.848;2023-09-07T10:58:34;27.70;99.90
42743;DHT22;28397;44.552;-0.848;2023-09-07T11:01:00;27.90;99.90
42743;DHT22;28397;44.552;-0.848;2023-09-07T11:03:27;28.00;99.90
42743;DHT22;28397;44.552;-0.848;2023-09-07T11:06:04;28.10;99.90
42743;DHT22;28397;44.552;-0.848;2023-09-07T11:08:32;28.20;99.90
42743;DHT22;28397;44.552;-0.848;2023-09-07T11:10:59;28.30;99.90
42743;DHT22;28397;44.552;-0.848;2023-09-07T11:13:26;28.40;99.90
42743;DHT22;28397;44.552;-0.848;2023-09-07T11:15:59;28.40;99.90
42743;DHT22;28397;44.552;-0.848;2023-09-07T11:18:26;28.40;99.90
42743;DHT22;28397;44.552;-0.848;2023-09-07T11:20:52;28.40;99.90
42743;DHT22;28397;44.552;-0.848;2023-09-07T11:23:19;28.40;99.90
42743;DHT22;28397;44.552;-0.848;2023-09-07T11:25:47;28.40;99.90
42743;DHT22;28397;44.552;-0.848;2023-09-07T11:28:16;28.50;99.90
42743;DHT22;28397;44.552;-0.848;2023-09-07T11:30:53;28.60;99.90
42743;DHT22;28397;44.552;-0.848;2023-09-07T11:33:23;28.80;99.90
42743;DHT22;28397;44.552;-0.848;2023-09-07T11:35:49;28.80;99.90
42743;DHT22;28397;44.552;-0.848;2023-09-07T11:38:16;29.00;99.90
42743;DHT22;28397;44.552;-0.848;2023-09-07T11:40:42;29.10;99.90
42743;DHT22;28397;44.552;-0.848;2023-09-07T11:43:12;29.20;99.90
42743;DHT22;28397;44.552;-0.848;2023-09-07T11:45:42;29.30;99.90
42743;DHT22;28397;44.552;-0.848;2023-09-07T11:48:09;29.30;99.90
42743;DHT22;28397;44.552;-0.848;2023-09-07T11:50:35;29.40;99.90
42743;DHT22;28397;44.552;-0.848;2023-09-07T11:53:01;29.50;99.90
42743;DHT22;28397;44.552;-0.848;2023-09-07T11:55:27;29.70;99.90
42743;DHT22;28397;44.552;-0.848;2023-09-07T11:57:52;29.80;99.90
42743;DHT22;28397;44.552;-0.848;2023-09-07T12:00:18;29.80;99.90
42743;DHT22;28397;44.552;-0.848;2023-09-07T12:02:44;30.00;99.90
42743;DHT22;28397;44.552;-0.848;2023-09-07T12:05:10;30.20;99.90
42743;DHT22;28397;44.552;-0.848;2023-09-07T12:07:40;30.30;99.90
42743;DHT22;28397;44.552;-0.848;2023-09-07T12:10:06;30.40;99.90
42743;DHT22;28397;44.552;-0.848;2023-09-07T12:12:36;30.50;99.90
42743;DHT22;28397;44.552;-0.848;2023-09-07T12:15:03;30.80;99.90
42743;DHT22;28397;44.552;-0.848;2023-09-07T12:17:30;30.80;99.90
42743;DHT22;28397;44.552;-0.848;2023-09-07T12:19:55;30.80;99.90
42743;DHT22;28397;44.552;-0.848;2023-09-07T12:22:21;30.90;99.90
42743;DHT22;28397;44.552;-0.848;2023-09-07T12:24:47;30.80;99.90
42743;DHT22;28397;44.552;-0.848;2023-09-07T12:27:13;30.80;99.90
42743;DHT22;28397;44.552;-0.848;2023-09-07T12:29:39;30.80;99.90
42743;DHT22;28397;44.552;-0.848;2023-09-07T12:32:05;30.70;99.90
42743;DHT22;28397;44.552;-0.848;2023-09-07T12:34:30;30.60;99.90
42743;DHT22;28397;44.552;-0.848;2023-09-07T12:36:56;30.80;99.90
42743;DHT22;28397;44.552;-0.848;2023-09-07T12:39:21;30.90;99.90
42743;DHT22;28397;44.552;-0.848;2023-09-07T12:41:47;30.90;99.90
42743;DHT22;28397;44.552;-0.848;2023-09-07T12:44:13;30.90;99.90
42743;DHT22;28397;44.552;-0.848;2023-09-07T12:46:39;31.20;99.90
42743;DHT22;28397;44.552;-0.848;2023-09-07T12:49:04;31.40;99.90
42743;DHT22;28397;44.552;-0.848;2023-09-07T12:51:30;31.30;99.90
42743;DHT22;28397;44.552;-0.848;2023-09-07T12:53:56;31.00;99.90
42743;DHT22;28397;44.552;-0.848;2023-09-07T12:56:22;30.80;99.90
42743;DHT22;28397;44.552;-0.848;2023-09-07T12:58:48;30.70;99.90
42743;DHT22;28397;44.552;-0.848;2023-09-07T13:01:14;30.60;99.90
42743;DHT22;28397;44.552;-0.848;2023-09-07T13:03:42;30.60;99.90
42743;DHT22;28397;44.552;-0.848;2023-09-07T13:06:07;30.80;99.90
42743;DHT22;28397;44.552;-0.848;2023-09-07T13:08:34;30.90;99.90
42743;DHT22;28397;44.552;-0.848;2023-09-07T13:10:59;31.00;99.90
42743;DHT22;28397;44.552;-0.848;2023-09-07T13:13:25;31.00;99.90
42743;DHT22;28397;44.552;-0.848;2023-09-07T13:15:57;30.90;99.90
42743;DHT22;28397;44.552;-0.848;2023-09-07T13:18:23;30.90;99.90
42743;DHT22;28397;44.552;-0.848;2023-09-07T13:20:50;30.90;99.90
42743;DHT22;28397;44.552;-0.848;2023-09-07T13:23:17;30.90;99.90
42743;DHT22;28397;44.552;-0.848;2023-09-07T13:25:43;31.10;99.90
42743;DHT22;28397;44.552;-0.848;2023-09-07T13:28:09;31.20;99.90
42743;DHT22;28397;44.552;-0.848;2023-09-07T13:30:35;31.20;99.90
42743;DHT22;28397;44.552;-0.848;2023-09-07T13:33:00;31.20;99.90
42743;DHT22;28397;44.552;-0.848;2023-09-07T13:35:26;31.30;99.90
42743;DHT22;28397;44.552;-0.848;2023-09-07T13:37:52;31.40;99.90
42743;DHT22;28397;44.552;-0.848;2023-09-07T13:40:18;31.30;99.90
42743;DHT22;28397;44.552;-0.848;2023-09-07T13:42:47;31.40;99.90
42743;DHT22;28397;44.552;-0.848;2023-09-07T13:45:13;31.50;99.90
42743;DHT22;28397;44.552;-0.848;2023-09-07T13:47:39;31.60;99.90
42743;DHT22;28397;44.552;-0.848;2023-09-07T13:50:05;31.80;99.90
42743;DHT22;28397;44.552;-0.848;2023-09-07T13:52:31;31.80;99.90
42743;DHT22;28397;44.552;-0.848;2023-09-07T13:54:57;31.90;99.90
42743;DHT22;28397;44.552;-0.848;2023-09-07T13:57:22;32.00;99.90
42743;DHT22;28397;44.552;-0.848;2023-09-07T13:59:48;32.00;99.90
42743;DHT22;28397;44.552;-0.848;2023-09-07T14:02:14;32.00;99.90
42743;DHT22;28397;44.552;-0.848;2023-09-07T14:04:40;32.00;99.90
42743;DHT22;28397;44.552;-0.848;2023-09-07T14:07:06;32.10;99.90
42743;DHT22;28397;44.552;-0.848;2023-09-07T14:09:31;32.30;99.90
42743;DHT22;28397;44.552;-0.848;2023-09-07T14:11:57;32.30;99.90
42743;DHT22;28397;44.552;-0.848;2023-09-07T14:14:22;32.50;99.90
42743;DHT22;28397;44.552;-0.848;2023-09-07T14:16:48;32.60;99.90
42743;DHT22;28397;44.552;-0.848;2023-09-07T14:19:16;32.70;99.90
42743;DHT22;28397;44.552;-0.848;2023-09-07T14:21:41;32.50;99.90
42743;DHT22;28397;44.552;-0.848;2023-09-07T14:24:07;32.30;99.90
42743;DHT22;28397;44.552;-0.848;2023-09-07T14:26:32;32.30;99.90
42743;DHT22;28397;44.552;-0.848;2023-09-07T14:28:58;32.20;99.90
42743;DHT22;28397;44.552;-0.848;2023-09-07T14:31:24;32.20;99.90
42743;DHT22;28397;44.552;-0.848;2023-09-07T14:33:49;32.00;99.90
42743;DHT22;28397;44.552;-0.848;2023-09-07T14:36:15;32.10;99.90
42743;DHT22;28397;44.552;-0.848;2023-09-07T14:38:41;32.20;99.90
42743;DHT22;28397;44.552;-0.848;2023-09-07T14:41:10;31.90;99.90
42743;DHT22;28397;44.552;-0.848;2023-09-07T14:43:41;32.00;99.90
42743;DHT22;28397;44.552;-0.848;2023-09-07T14:46:07;32.20;99.90
42743;DHT22;28397;44.552;-0.848;2023-09-07T14:48:33;32.20;99.90
42743;DHT22;28397;44.552;-0.848;2023-09-07T14:50:58;32.00;99.90
42743;DHT22;28397;44.552;-0.848;2023-09-07T14:53:24;31.80;99.90
42743;DHT22;28397;44.552;-0.848;2023-09-07T14:55:50;31.60;99.90
42743;DHT22;28397;44.552;-0.848;2023-09-07T14:58:15;31.70;99.90
42743;DHT22;28397;44.552;-0.848;2023-09-07T15:00:41;31.80;99.90
42743;DHT22;28397;44.552;-0.848;2023-09-07T15:03:07;32.00;99.90
42743;DHT22;28397;44.552;-0.848;2023-09-07T15:05:32;32.10;99.90
42743;DHT22;28397;44.552;-0.848;2023-09-07T15:07:58;32.30;99.90
42743;DHT22;28397;44.552;-0.848;2023-09-07T15:10:28;32.40;99.90
42743;DHT22;28397;44.552;-0.848;2023-09-07T15:12:54;32.60;99.90